Hauptseite
METAR-TAF:

METAR-TAF

Flughäfen :

Farnborough Airfield

Farnborough, England

Breite: 51-17N, Länge: 000-46W, Höhe: 65 m

Beobachtung

Neuester Wetterbericht von vor 24 Minuten, um 11:20 UTC
Wind 5 kt aus Südost, variierte zwischen Ost und Süd
Temperatur 6°C
Luftfeuchtigkeit 81%
Luftdruck 994 hPa
Sichtweite 10 km oder mehr
Aufgelockert bewölkt in der Höhe von 1400 ft

METAR: EGLF 141120Z 13005KT 090V170 9999 SCT014 06/03 Q0994

Zeit: 11:44 (11:44 UTC)

Prognose

Neuester Wetterbericht von vor 38 Minuten, um 11:06 UTC
Gültige Prognose vom 14 um 12 UTC bis 14 um 21 UTC
Wind 6 kt aus Südwest
Sichtweite 10 km oder mehr
Aufgelockert bewölkt in der Höhe von 3000 ft
Wahrscheinlichkeit 30% :
Zeitweise
vom 14 um 16 UTC bis 14 um 21 UTC
Sichtweite: 6000 m
Durchbrochene Bewölkung in der Höhe von 1400 ft
Regenschauer

TAF: EGLF 141106Z 1412/1421 23006KT 9999 SCT030 PROB30 TEMPO 1416/1421 6000 SHRA BKN014

Wetterbeobachtungen und Prognosen von mehr als 4000 Flughäfen (METAR und TAF Bericht).

Die verfügbaren Stationen werden durch gelbe und rote Markierungen auf der Karte dargestellt.

Führen Sie die Maus auf sie, um den Namen der Station zu sehen.

Darauf klicken, um die Beobachtung von Wetterbeobachtungen und Prognosen zu sehen.

Um die Karte zu ändern : klicken Sie auf den grünen Tasten mit einem schwarzen Kreuz Zum Vergrößern, auf den grünen Button mit einem Gedankenstrich zu verkleinern, oder auf die grünen Pfeile für benachbarte Karten.


METAR-TAF: